createdAt,value
2022-09-02T00:01:57.545Z,2.10
2022-09-02T00:04:28.533Z,1.70
2022-09-02T00:06:57.815Z,3.63
2022-09-02T00:09:28.342Z,1.57
2022-09-02T00:11:58.644Z,4.63
2022-09-02T00:14:30.770Z,2.50
2022-09-02T00:17:00.907Z,1.70
2022-09-02T00:19:31.850Z,1.53
2022-09-02T00:22:02.459Z,1.20
2022-09-02T00:24:33.554Z,1.00
2022-09-02T00:27:02.616Z,1.47
2022-09-02T00:29:32.018Z,5.40
2022-09-02T00:32:01.539Z,1.20
2022-09-02T00:34:31.127Z,0.70
2022-09-02T00:37:00.725Z,1.03
2022-09-02T00:39:29.885Z,0.80
2022-09-02T00:42:01.431Z,5.27
2022-09-02T00:44:30.684Z,1.83
2022-09-02T00:46:59.916Z,2.17
2022-09-02T00:49:31.266Z,0.80
2022-09-02T00:52:03.894Z,0.80
2022-09-02T00:54:36.483Z,1.13
2022-09-02T00:57:15.782Z,1.13
2022-09-02T00:59:50.090Z,0.90
2022-09-02T01:02:23.935Z,1.57
2022-09-02T01:04:56.717Z,2.60
2022-09-02T01:07:28.037Z,1.13
2022-09-02T01:09:59.461Z,1.60
2022-09-02T01:12:31.817Z,1.07
2022-09-02T01:15:01.224Z,2.00
2022-09-02T01:17:34.597Z,5.57
2022-09-02T01:20:12.128Z,0.80
2022-09-02T01:22:43.423Z,1.10
2022-09-02T01:25:17.231Z,1.13
2022-09-02T01:27:47.159Z,4.03
2022-09-02T01:30:20.673Z,1.67
2022-09-02T01:32:50.253Z,5.07
2022-09-02T01:35:19.971Z,6.60
2022-09-02T01:37:55.831Z,5.47
2022-09-02T01:40:27.587Z,1.40
2022-09-02T01:43:00.483Z,1.00
2022-09-02T01:45:30.420Z,1.17
2022-09-02T01:47:59.616Z,1.67
2022-09-02T01:50:29.404Z,0.90
2022-09-02T01:53:03.768Z,6.10
2022-09-02T01:55:36.005Z,1.67
2022-09-02T01:58:05.719Z,1.37
2022-09-02T02:00:34.883Z,2.57
2022-09-02T02:03:04.372Z,2.93
2022-09-02T02:05:33.914Z,0.97
2022-09-02T02:08:06.088Z,3.83
2022-09-02T02:10:35.524Z,1.20
2022-09-02T02:13:05.042Z,3.33
2022-09-02T02:15:38.972Z,2.20
2022-09-02T02:18:08.590Z,1.00
2022-09-02T02:20:38.157Z,1.27
2022-09-02T02:23:09.157Z,1.40
2022-09-02T02:25:38.978Z,1.07
2022-09-02T02:28:08.088Z,0.70
2022-09-02T02:30:37.683Z,1.47
2022-09-02T02:33:08.415Z,1.03
2022-09-02T02:35:37.587Z,1.13
2022-09-02T02:38:08.517Z,1.80
2022-09-02T02:40:38.369Z,1.50
2022-09-02T02:43:07.925Z,1.00
2022-09-02T02:45:37.049Z,0.93
2022-09-02T02:48:07.112Z,1.70
2022-09-02T02:50:36.964Z,1.93
2022-09-02T02:53:06.213Z,1.00
2022-09-02T02:55:36.915Z,1.67
2022-09-02T02:58:06.734Z,1.57
2022-09-02T03:00:36.930Z,1.53
2022-09-02T03:03:08.767Z,2.13
2022-09-02T03:05:40.400Z,0.70
2022-09-02T03:08:11.337Z,1.70
2022-09-02T03:10:44.182Z,0.77
2022-09-02T03:13:15.568Z,3.13
2022-09-02T03:15:46.910Z,3.87
2022-09-02T03:18:16.784Z,1.17
2022-09-02T03:20:45.989Z,0.80
2022-09-02T03:23:15.763Z,1.07
2022-09-02T03:25:50.315Z,1.43
2022-09-02T03:28:33.091Z,1.00
2022-09-02T03:31:03.342Z,0.87
2022-09-02T03:33:33.846Z,1.10
2022-09-02T03:36:03.136Z,3.97
2022-09-02T03:38:32.972Z,5.37
2022-09-02T03:41:03.682Z,4.50
2022-09-02T03:43:32.773Z,0.80
2022-09-02T03:46:02.009Z,0.90
2022-09-02T03:48:31.657Z,1.00
2022-09-02T03:51:02.910Z,1.53
2022-09-02T03:53:32.320Z,2.40
2022-09-02T03:56:06.646Z,1.43
2022-09-02T03:58:36.501Z,1.00
2022-09-02T04:01:06.720Z,0.80
2022-09-02T04:03:36.050Z,1.00
2022-09-02T04:06:05.574Z,1.10
2022-09-02T04:08:34.740Z,1.67
2022-09-02T04:11:09.518Z,1.90
2022-09-02T04:13:39.347Z,1.10
2022-09-02T04:16:10.487Z,1.10
2022-09-02T04:18:39.952Z,1.47
2022-09-02T04:21:12.695Z,1.60
2022-09-02T04:23:43.213Z,5.90
2022-09-02T04:26:16.557Z,2.87
2022-09-02T04:28:45.817Z,5.33
2022-09-02T04:31:17.280Z,4.33
2022-09-02T04:33:47.165Z,6.30
2022-09-02T04:36:20.771Z,1.50
2022-09-02T04:38:52.680Z,1.57
2022-09-02T04:41:28.749Z,1.63
2022-09-02T04:44:01.275Z,2.97
2022-09-02T04:46:34.877Z,13.97
2022-09-02T04:49:06.873Z,1.10
2022-09-02T04:51:36.644Z,1.73
2022-09-02T04:54:08.039Z,2.07
2022-09-02T04:56:40.166Z,2.07
2022-09-02T04:59:10.721Z,2.40
2022-09-02T05:01:45.102Z,1.73
2022-09-02T05:04:19.587Z,11.43
2022-09-02T05:06:54.850Z,1.83
2022-09-02T05:09:25.103Z,1.73
2022-09-02T05:12:04.127Z,1.87
2022-09-02T05:14:41.563Z,2.43
2022-09-02T05:17:11.789Z,4.27
2022-09-02T05:19:44.772Z,2.73
2022-09-02T05:22:14.743Z,7.73
2022-09-02T05:24:45.519Z,7.53
2022-09-02T05:27:17.559Z,4.73
2022-09-02T05:29:48.260Z,9.97
2022-09-02T05:32:20.889Z,2.90
2022-09-02T05:34:51.923Z,1.43
2022-09-02T05:37:21.483Z,4.27
2022-09-02T05:39:51.651Z,7.40
2022-09-02T05:42:23.385Z,2.93
2022-09-02T05:44:55.734Z,3.13
2022-09-02T05:47:30.554Z,1.73
2022-09-02T05:50:03.795Z,7.07
2022-09-02T05:52:42.036Z,7.10
2022-09-02T05:55:12.073Z,1.97
2022-09-02T05:57:43.300Z,1.80
2022-09-02T06:00:17.971Z,8.53
2022-09-02T06:02:55.955Z,12.73
2022-09-02T06:05:38.300Z,3.33
2022-09-02T06:08:13.850Z,4.40
2022-09-02T06:10:44.612Z,2.53
2022-09-02T06:13:22.696Z,3.60
2022-09-02T06:15:53.755Z,0.97
2022-09-02T06:18:26.788Z,7.47
2022-09-02T06:20:57.957Z,6.63
2022-09-02T06:23:34.395Z,1.73
2022-09-02T06:26:04.898Z,4.68
2022-09-02T06:28:35.600Z,2.75
2022-09-02T06:31:09.676Z,5.05
2022-09-02T06:33:39.973Z,0.90
2022-09-02T06:36:12.029Z,2.20
2022-09-02T06:38:46.024Z,0.68
2022-09-02T06:41:19.503Z,3.80
2022-09-02T06:43:50.631Z,1.53
2022-09-02T06:46:26.093Z,0.70
2022-09-02T06:48:58.350Z,2.50
2022-09-02T06:51:31.339Z,1.13
2022-09-02T06:54:03.525Z,0.63
2022-09-02T06:56:36.382Z,6.10
2022-09-02T06:59:07.556Z,1.47
2022-09-02T07:01:51.176Z,2.90
2022-09-02T07:04:40.299Z,1.55
2022-09-02T07:07:12.383Z,0.70
2022-09-02T07:10:10.106Z,2.70
2022-09-02T07:12:48.833Z,3.03
2022-09-02T07:15:21.215Z,0.60
2022-09-02T07:17:50.631Z,6.68
2022-09-02T07:20:35.263Z,8.38
2022-09-02T07:23:05.549Z,5.05
2022-09-02T07:25:38.864Z,1.38
2022-09-02T07:28:10.836Z,1.92
2022-09-02T07:30:43.183Z,1.23
2022-09-02T07:33:17.706Z,3.92
2022-09-02T07:35:48.469Z,8.45
2022-09-02T07:38:19.894Z,0.93
2022-09-02T07:40:51.169Z,1.85
2022-09-02T07:43:26.287Z,4.03
2022-09-02T07:45:58.725Z,0.45
2022-09-02T07:48:29.497Z,1.17
2022-09-02T07:50:59.922Z,4.97
2022-09-02T07:53:32.303Z,2.47
2022-09-02T07:56:03.165Z,0.93
2022-09-02T07:58:32.914Z,7.80
2022-09-02T08:01:05.122Z,2.05
2022-09-02T08:03:35.146Z,0.93
2022-09-02T08:06:04.947Z,0.90
2022-09-02T08:08:34.361Z,7.65
2022-09-02T08:11:03.817Z,2.20
2022-09-02T08:13:33.376Z,2.63
2022-09-02T08:16:04.572Z,3.45
2022-09-02T08:18:34.531Z,1.95
2022-09-02T08:21:04.020Z,0.55
2022-09-02T08:23:37.117Z,0.25
2022-09-02T08:26:07.640Z,3.83
2022-09-02T08:28:36.920Z,1.23
2022-09-02T08:31:10.772Z,1.00
2022-09-02T08:33:40.418Z,1.35
2022-09-02T08:36:11.918Z,1.73
2022-09-02T08:38:41.015Z,2.38
2022-09-02T08:41:23.200Z,5.00
2022-09-02T08:43:54.927Z,7.80
2022-09-02T08:46:28.736Z,4.00
2022-09-02T08:49:00.507Z,0.68
2022-09-02T08:51:37.585Z,1.92
2022-09-02T08:54:10.653Z,0.50
2022-09-02T08:56:42.135Z,0.60
2022-09-02T08:59:13.514Z,0.60
2022-09-02T09:01:51.227Z,2.78
2022-09-02T09:04:28.043Z,0.30
2022-09-02T09:07:12.178Z,0.30
2022-09-02T09:09:50.962Z,2.50
2022-09-02T09:12:29.526Z,0.30
2022-09-02T09:15:10.018Z,0.47
2022-09-02T09:17:46.353Z,0.80
2022-09-02T09:20:20.537Z,0.88
2022-09-02T09:22:51.972Z,1.05
2022-09-02T09:25:21.188Z,4.85
2022-09-02T09:27:50.222Z,6.20
2022-09-02T09:30:19.778Z,0.90
2022-09-02T09:32:54.754Z,0.52
2022-09-02T09:35:24.706Z,2.65
2022-09-02T09:37:55.309Z,3.10
2022-09-02T09:40:33.427Z,0.63
2022-09-02T09:43:16.215Z,0.93
2022-09-02T09:45:47.156Z,0.98
2022-09-02T09:48:27.864Z,1.55
2022-09-02T09:51:15.846Z,1.27
2022-09-02T09:53:45.510Z,0.50
2022-09-02T09:56:37.374Z,1.02
2022-09-02T09:59:29.744Z,0.43
2022-09-02T10:01:59.059Z,0.35
2022-09-02T10:04:42.969Z,3.60
2022-09-02T10:07:14.202Z,0.50
2022-09-02T10:09:44.531Z,3.05
2022-09-02T10:12:14.649Z,5.30
2022-09-02T10:14:46.733Z,0.50
2022-09-02T10:17:33.625Z,1.95
2022-09-02T10:20:09.100Z,0.38
2022-09-02T10:23:00.699Z,0.75
2022-09-02T10:25:39.164Z,2.97
2022-09-02T10:28:20.427Z,3.38
2022-09-02T10:31:03.398Z,2.20
2022-09-02T10:33:43.877Z,1.02
2022-09-02T10:36:25.354Z,0.55
2022-09-02T10:38:54.685Z,0.28
2022-09-02T10:41:37.351Z,1.50
2022-09-02T10:44:22.892Z,1.17
2022-09-02T10:47:01.170Z,0.50
2022-09-02T10:50:07.284Z,4.00
2022-09-02T10:52:55.076Z,0.50
2022-09-02T10:55:37.915Z,1.00
2022-09-02T10:58:11.612Z,1.30
2022-09-02T11:00:47.968Z,5.75
2022-09-02T11:03:23.039Z,0.93
2022-09-02T11:05:56.982Z,4.55
2022-09-02T11:08:38.501Z,2.63
2022-09-02T11:11:13.357Z,1.25
2022-09-02T11:13:53.790Z,0.95
2022-09-02T11:16:28.501Z,1.00
2022-09-02T11:19:03.682Z,1.13
2022-09-02T11:21:49.088Z,5.38
2022-09-02T11:24:28.169Z,4.50
2022-09-02T11:27:11.805Z,1.77
2022-09-02T11:30:02.002Z,0.65
2022-09-02T11:32:39.056Z,2.17
2022-09-02T11:35:11.965Z,0.88
2022-09-02T11:37:46.391Z,0.68
2022-09-02T11:40:34.915Z,0.40
2022-09-02T11:43:15.873Z,1.48
2022-09-02T11:46:20.077Z,4.60
2022-09-02T11:49:23.298Z,5.90
2022-09-02T11:52:13.090Z,6.53
2022-09-02T11:54:47.684Z,4.63
2022-09-02T11:57:26.774Z,1.75
2022-09-02T12:00:10.733Z,4.72
2022-09-02T12:02:47.892Z,0.73
2022-09-02T12:06:04.139Z,1.25
2022-09-02T12:09:02.715Z,0.50
2022-09-02T12:11:46.885Z,5.82
2022-09-02T12:15:06.085Z,1.92
2022-09-02T12:18:11.576Z,1.27
2022-09-02T12:21:16.651Z,0.65
2022-09-02T12:24:11.395Z,3.45
2022-09-02T12:27:17.255Z,0.30
2022-09-02T12:29:46.567Z,12.75
2022-09-02T12:33:05.093Z,0.32
2022-09-02T12:35:54.503Z,6.80
2022-09-02T12:38:29.305Z,3.13
2022-09-02T12:41:13.369Z,2.30
2022-09-02T12:43:53.923Z,3.90
2022-09-02T12:46:29.578Z,5.57
2022-09-02T12:49:06.691Z,0.50
2022-09-02T12:51:59.800Z,2.65
2022-09-02T12:54:42.564Z,2.58
2022-09-02T12:57:12.182Z,0.93
2022-09-02T12:59:42.516Z,1.85
2022-09-02T13:02:29.581Z,5.32
2022-09-02T13:05:16.121Z,1.70
2022-09-02T13:08:14.821Z,7.60
2022-09-02T13:11:24.556Z,4.20
2022-09-02T13:14:21.860Z,0.85
2022-09-02T13:17:35.026Z,0.38
2022-09-02T13:20:41.411Z,0.63
2022-09-02T13:23:36.306Z,3.63
2022-09-02T13:26:45.462Z,0.50
2022-09-02T13:29:56.065Z,6.10
2022-09-02T13:32:26.920Z,2.03
2022-09-02T13:34:58.463Z,5.70
2022-09-02T13:37:32.859Z,6.18
2022-09-02T13:40:06.508Z,0.40
2022-09-02T13:42:35.531Z,4.60
2022-09-02T13:45:18.658Z,0.40
2022-09-02T13:47:50.622Z,2.70
2022-09-02T13:50:22.606Z,3.17
2022-09-02T13:55:51.742Z,2.47
2022-09-02T13:58:33.876Z,5.97
2022-09-02T14:01:19.604Z,1.15
2022-09-02T14:03:51.557Z,1.65
2022-09-02T14:06:24.534Z,1.52
2022-09-02T14:08:56.847Z,0.55
2022-09-02T14:11:28.955Z,2.83
2022-09-02T14:13:58.851Z,0.60
2022-09-02T14:16:34.571Z,1.08
2022-09-02T14:19:10.487Z,4.00
2022-09-02T14:21:46.805Z,1.50
2022-09-02T14:24:21.416Z,1.50
2022-09-02T14:26:53.977Z,1.25
2022-09-02T14:29:23.855Z,0.93
2022-09-02T14:32:13.677Z,0.73
2022-09-02T14:34:44.541Z,3.58
2022-09-02T14:37:24.952Z,1.30
2022-09-02T14:40:11.727Z,0.90
2022-09-02T14:42:48.088Z,3.88
2022-09-02T14:45:27.489Z,1.13
2022-09-02T14:47:58.089Z,5.18
2022-09-02T14:50:30.631Z,4.38
2022-09-02T14:53:04.745Z,1.08
2022-09-02T14:55:48.614Z,5.20
2022-09-02T14:58:20.394Z,1.30
2022-09-02T15:00:55.693Z,5.35
2022-09-02T15:03:25.692Z,4.82
2022-09-02T15:05:55.028Z,1.38
2022-09-02T15:08:24.264Z,1.75
2022-09-02T15:10:55.528Z,0.90
2022-09-02T15:13:30.493Z,0.90
2022-09-02T15:16:03.315Z,2.08
2022-09-02T15:18:32.827Z,4.55
2022-09-02T15:21:03.268Z,2.85
2022-09-02T15:23:34.944Z,4.50
2022-09-02T15:26:06.112Z,1.08
2022-09-02T15:28:38.527Z,0.50
2022-09-02T15:31:07.674Z,10.63
2022-09-02T15:33:37.477Z,4.10
2022-09-02T15:36:07.995Z,1.67
2022-09-02T15:38:38.572Z,4.90
2022-09-02T15:41:19.103Z,0.65
2022-09-02T15:43:49.991Z,1.77
2022-09-02T15:46:25.325Z,7.40
2022-09-02T15:49:00.207Z,1.63
2022-09-02T15:51:30.817Z,2.70
2022-09-02T15:54:02.336Z,10.82
2022-09-02T15:56:33.885Z,4.93
2022-09-02T15:59:09.838Z,2.70
2022-09-02T16:01:40.933Z,1.95
2022-09-02T16:04:10.543Z,1.35
2022-09-02T16:06:42.104Z,5.22
2022-09-02T16:09:12.660Z,1.27
2022-09-02T16:11:43.603Z,1.02
2022-09-02T16:14:14.916Z,1.00
2022-09-02T16:16:50.987Z,14.32
2022-09-02T16:19:21.991Z,14.02
2022-09-02T16:21:52.089Z,9.20
2022-09-02T16:24:22.778Z,2.28
2022-09-02T16:26:52.669Z,8.32
2022-09-02T16:29:24.119Z,1.80
2022-09-02T16:32:14.023Z,3.10
2022-09-02T16:34:45.470Z,0.98
2022-09-02T16:37:14.640Z,4.28
2022-09-02T16:39:43.818Z,4.35
2022-09-02T16:42:12.890Z,0.47
2022-09-02T16:44:43.283Z,2.45
2022-09-02T16:47:13.963Z,6.35
2022-09-02T16:49:46.038Z,0.40
2022-09-02T16:52:15.753Z,0.80
2022-09-02T16:54:44.870Z,0.80
2022-09-02T16:57:13.969Z,6.97
2022-09-02T16:59:44.375Z,3.65
2022-09-02T17:02:13.566Z,20.67
2022-09-02T17:04:42.685Z,5.13
2022-09-02T17:07:11.702Z,24.15
2022-09-02T17:09:44.160Z,4.70
2022-09-02T17:12:13.161Z,15.63
2022-09-02T17:14:43.578Z,4.57
2022-09-02T17:17:14.919Z,4.18
2022-09-02T17:19:44.058Z,8.77
2022-09-02T17:22:13.135Z,10.23
2022-09-02T17:24:42.464Z,31.88
2022-09-02T17:27:11.824Z,5.35
2022-09-02T17:29:49.534Z,4.03
2022-09-02T17:32:21.178Z,6.18
2022-09-02T17:34:52.511Z,1.83
2022-09-02T17:37:22.286Z,3.75
2022-09-02T17:39:51.824Z,3.17
2022-09-02T17:42:21.379Z,1.20
2022-09-02T17:44:50.643Z,8.23
2022-09-02T17:47:22.721Z,2.00
2022-09-02T17:49:52.361Z,4.32
2022-09-02T17:52:23.901Z,3.70
2022-09-02T17:54:55.241Z,2.15
2022-09-02T18:02:03.748Z,1.95
2022-09-02T18:04:49.125Z,11.45
2022-09-02T18:07:29.262Z,10.35
2022-09-02T18:09:58.522Z,12.93
2022-09-02T18:12:28.501Z,40.22
2022-09-02T18:15:00.220Z,27.42
2022-09-02T18:17:35.991Z,29.02
2022-09-02T18:20:13.680Z,32.38
2022-09-02T18:23:09.058Z,8.88
2022-09-02T18:25:53.187Z,1.17
2022-09-02T18:28:35.707Z,2.85
2022-09-02T18:31:18.904Z,22.20
2022-09-02T18:34:08.428Z,216.73
2022-09-02T18:36:49.839Z,190.73
2022-09-02T18:39:34.452Z,118.65
2022-09-02T18:42:20.761Z,62.88
2022-09-02T18:44:59.706Z,17.20
2022-09-02T18:47:34.107Z,15.25
2022-09-02T18:50:06.648Z,13.18
2022-09-02T18:52:38.899Z,15.23
2022-09-02T18:55:13.014Z,2.90
2022-09-02T18:57:51.732Z,7.25
2022-09-02T19:00:22.553Z,2.30
2022-09-02T19:02:57.957Z,2.15
2022-09-02T19:05:32.454Z,3.25
2022-09-02T19:08:23.413Z,3.83
2022-09-02T19:11:00.965Z,0.50
2022-09-02T19:13:30.733Z,3.90
2022-09-02T19:16:04.177Z,3.55
2022-09-02T19:18:35.327Z,5.50
2022-09-02T19:21:06.239Z,1.80
2022-09-02T19:23:37.539Z,0.37
2022-09-02T19:26:07.036Z,1.93
2022-09-02T19:28:36.584Z,7.93
2022-09-02T19:31:06.077Z,2.63
2022-09-02T19:33:37.793Z,0.50
2022-09-02T19:36:08.432Z,1.10
2022-09-02T19:38:39.202Z,0.90
2022-09-02T19:41:08.503Z,0.60
2022-09-02T19:43:40.733Z,3.97
2022-09-02T19:46:27.709Z,3.50
2022-09-02T19:49:00.033Z,2.07
2022-09-02T19:51:29.192Z,2.60
2022-09-02T19:54:03.390Z,10.50
2022-09-02T19:56:32.820Z,1.70
2022-09-02T19:59:02.156Z,2.83
2022-09-02T20:01:31.707Z,0.50
2022-09-02T20:04:00.857Z,1.80
2022-09-02T20:06:30.601Z,0.57
2022-09-02T20:09:04.646Z,0.80
2022-09-02T20:11:34.734Z,0.87
2022-09-02T20:14:06.463Z,1.03
2022-09-02T20:16:39.018Z,4.65
2022-09-02T20:19:09.198Z,1.90
2022-09-02T20:21:44.675Z,2.00
2022-09-02T20:24:22.999Z,7.93
2022-09-02T20:26:59.876Z,0.73
2022-09-02T20:29:47.879Z,0.93
2022-09-02T20:32:28.836Z,0.98
2022-09-02T20:35:11.441Z,2.10
2022-09-02T20:37:52.908Z,2.07
2022-09-02T20:40:46.139Z,2.60
2022-09-02T20:43:43.631Z,1.13
2022-09-02T20:46:30.949Z,0.97
2022-09-02T20:49:17.445Z,1.10
2022-09-02T20:51:57.091Z,2.08
2022-09-02T20:54:40.332Z,1.27
2022-09-02T20:57:26.603Z,1.00
2022-09-02T21:00:07.522Z,2.20
2022-09-02T21:02:46.551Z,1.37
2022-09-02T21:05:22.823Z,0.73
2022-09-02T21:08:01.340Z,3.50
2022-09-02T21:10:35.795Z,0.93
2022-09-02T21:13:12.760Z,1.20
2022-09-02T21:15:47.062Z,2.13
2022-09-02T21:18:21.739Z,0.70
2022-09-02T21:20:55.973Z,1.97
2022-09-02T21:23:31.497Z,2.57
2022-09-02T21:26:23.198Z,1.37
2022-09-02T21:29:00.136Z,0.67
2022-09-02T21:31:35.117Z,0.40
2022-09-02T21:34:09.991Z,1.10
2022-09-02T21:36:40.566Z,0.50
2022-09-02T21:39:15.034Z,1.80
2022-09-02T21:41:50.307Z,1.37
2022-09-02T21:44:31.803Z,2.70
2022-09-02T21:47:15.253Z,1.60
2022-09-02T21:50:02.050Z,1.43
2022-09-02T21:52:39.130Z,0.80
2022-09-02T21:55:20.305Z,2.00
2022-09-02T21:58:09.084Z,0.97
2022-09-02T22:00:44.336Z,0.80
2022-09-02T22:03:17.722Z,0.85
2022-09-02T22:05:56.283Z,2.90
2022-09-02T22:08:32.244Z,0.45
2022-09-02T22:11:10.250Z,2.57
2022-09-02T22:13:42.010Z,1.07
2022-09-02T22:16:24.714Z,1.02
2022-09-02T22:19:01.801Z,0.60
2022-09-02T22:21:48.290Z,0.93
2022-09-02T22:24:18.920Z,1.03
2022-09-02T22:26:53.595Z,0.50
2022-09-02T22:29:29.000Z,0.50
2022-09-02T22:32:02.698Z,0.77
2022-09-02T22:34:36.217Z,3.30
2022-09-02T22:37:09.812Z,0.40
2022-09-02T22:39:45.470Z,0.73
2022-09-02T22:42:22.067Z,1.97
2022-09-02T22:45:18.317Z,0.57
2022-09-02T22:48:12.142Z,2.23
2022-09-02T22:51:04.892Z,1.33
2022-09-02T22:53:33.978Z,4.00
2022-09-02T22:56:04.852Z,0.67
2022-09-02T22:59:01.421Z,0.50
2022-09-02T23:01:39.801Z,2.43
2022-09-02T23:04:24.023Z,0.43
2022-09-02T23:07:01.046Z,0.43
2022-09-02T23:09:30.157Z,0.60
2022-09-02T23:12:05.800Z,0.77
2022-09-02T23:14:44.464Z,2.50
2022-09-02T23:17:33.625Z,1.60
2022-09-02T23:20:11.848Z,1.83
2022-09-02T23:23:05.344Z,0.93
2022-09-02T23:25:50.160Z,0.40
2022-09-02T23:28:25.353Z,0.63
2022-09-02T23:31:03.963Z,2.73
2022-09-02T23:33:55.009Z,1.20
2022-09-02T23:36:36.195Z,2.50
2022-09-02T23:39:28.796Z,1.07
2022-09-02T23:42:01.246Z,3.53
2022-09-02T23:44:31.041Z,2.00
2022-09-02T23:47:12.701Z,3.10
2022-09-02T23:49:50.037Z,1.00
2022-09-02T23:52:27.292Z,0.67
2022-09-02T23:55:09.078Z,0.90
2022-09-02T23:57:53.886Z,1.03
